Time;durP1;ratioP1;P1;durP2;ratioP2;P2;SDS_P1;SDS_P2;PMS_P1;PMS_P2;Temp;Humidity;BMP_temperature;BMP_pressure;BME280_temperature;BME280_humidity;BME280_pressure;Samples;Min_cycle;Max_cycle;Signal;HPM_P1;HPM_P2
2023/03/20 00:01:07;;;;;;;;;;;;;;;;;;137458;1275;22205;-82
2023/03/20 00:04:09;;;;;;;;;;;;;;;;;;137481;1274;22166;-82
2023/03/20 00:07:15;;;;;;;;;;;;;;;;;;137434;1275;22592;-82
2023/03/20 00:10:17;;;;;;;;;;;;;;;;;;137441;1275;22369;-82
2023/03/20 00:13:20;;;;;;;;;;;;;;;;;;137447;1275;22183;-81
2023/03/20 00:16:22;;;;;;;;;;;;;;;;;;137468;1274;22237;-82
2023/03/20 00:19:24;;;;;;;;;;;;;;;;;;137469;1274;22170;-82
2023/03/20 00:22:28;;;;;;;;;;;;;;;;;;137476;1274;22186;-83
2023/03/20 00:25:31;;;;;;;;;;;;;;;;;;137461;1274;22205;-83
2023/03/20 00:28:33;;;;;;;;;;;;;;;;;;137445;1274;22236;-81
2023/03/20 00:31:36;;;;;;;;;;;;;;;;;;137325;1274;154196;-82
2023/03/20 00:34:38;;;;;;;;;;;;;;;;;;137415;1274;22540;-82
2023/03/20 00:37:40;;;;;;;;;;;;;;;;;;137452;1274;22737;-83
2023/03/20 00:40:43;;;;;;;;;;;;;;;;;;137440;1274;22418;-82
2023/03/20 00:43:47;;;;;;;;;;;;;;;;;;137493;1268;22755;-82
2023/03/20 00:46:49;;;;;;;;;;;;;;;;;;137470;1274;22463;-81
2023/03/20 00:49:52;;;;;;;;;;;;;;;;;;137459;1274;22259;-81
2023/03/20 00:52:54;;;;;;;;;;;;;;;;;;137468;1274;22270;-81
2023/03/20 00:55:57;;;;;;;;;;;;;;;;;;137432;1274;22317;-82
2023/03/20 00:58:59;;;;;;;;;;;;;;;;;;137432;1274;22790;-82
2023/03/20 01:02:03;;;;;;;;;;;;;;;;;;137483;1274;22269;-82
2023/03/20 01:05:08;;;;;;;;;;;;;;;;;;137438;1275;22323;-81
2023/03/20 01:08:11;;;;;;;;;;;;;;;;;;137446;1271;22249;-82
2023/03/20 01:11:14;;;;;;;;;;;;;;;;;;137437;1275;22351;-82
2023/03/20 01:14:17;;;;;;;;;;;;;;;;;;137457;1275;22184;-82
2023/03/20 01:17:19;;;;;;;;;;;;;;;;;;137478;1270;22239;-81
2023/03/20 01:20:22;;;;;;;;;;;;;;;;;;137436;1275;22266;-81
2023/03/20 01:23:25;;;;;;;;;;;;;;;;;;137428;1275;22822;-81
2023/03/20 01:26:27;;;;;;;;;;;;;;;;;;137455;1274;22274;-81
2023/03/20 01:29:30;;;;;;;;;;;;;;;;;;137462;1274;22195;-81
2023/03/20 01:32:32;;;;;;;;;;;;;;;;;;137426;1274;22182;-80
2023/03/20 01:35:35;;;;;;;;;;;;;;;;;;137439;1274;22563;-81
2023/03/20 01:38:37;;;;;;;;;;;;;;;;;;137415;1275;22406;-81
2023/03/20 01:41:40;;;;;;;;;;;;;;;;;;137418;1270;22406;-83
2023/03/20 01:44:43;;;;;;;;;;;;;;;;;;137428;1274;22343;-81
2023/03/20 01:47:46;;;;;;;;;;;;;;;;;;137463;1274;22283;-81
2023/03/20 01:50:48;;;;;;;;;;;;;;;;;;137417;1274;22301;-81
2023/03/20 01:53:51;;;;;;;;;;;;;;;;;;137427;1274;22667;-82
2023/03/20 01:56:53;;;;;;;;;;;;;;;;;;137414;1274;22774;-80
2023/03/20 01:59:55;;;;;;;;;;;;;;;;;;137423;1274;22256;-82
2023/03/20 02:02:58;;;;;;;;;;;;;;;;;;137427;1274;22526;-82
2023/03/20 02:06:00;;;;;;;;;;;;;;;;;;137459;1274;22305;-82
2023/03/20 02:09:03;;;;;;;;;;;;;;;;;;137430;1267;22374;-82
2023/03/20 02:12:05;;;;;;;;;;;;;;;;;;137435;1274;22236;-82
2023/03/20 02:15:08;;;;;;;;;;;;;;;;;;137448;1274;22236;-82
2023/03/20 02:18:11;;;;;;;;;;;;;;;;;;137470;1274;22609;-81
2023/03/20 02:21:14;;;;;;;;;;;;;;;;;;137485;1274;22290;-81
2023/03/20 02:24:16;;;;;;;;;;;;;;;;;;137440;1274;22317;-81
2023/03/20 02:27:19;;;;;;;;;;;;;;;;;;137469;1274;22188;-82
2023/03/20 02:30:23;;;;;;;;;;;;;;;;;;137468;1275;22315;-82
2023/03/20 02:33:25;;;;;;;;;;;;;;;;;;137470;1270;22173;-82
2023/03/20 02:36:28;;;;;;;;;;;;;;;;;;137438;1274;22300;-83
2023/03/20 02:39:34;;;;;;;;;;;;;;;;;;137516;1274;22386;-83
2023/03/20 02:42:37;;;;;;;;;;;;;;;;;;137499;1274;22308;-82
2023/03/20 02:45:39;;;;;;;;;;;;;;;;;;137534;1274;22277;-82
2023/03/20 02:48:42;;;;;;;;;;;;;;;;;;137539;1271;22593;-81
2023/03/20 02:51:44;;;;;;;;;;;;;;;;;;137546;1270;22815;-82
2023/03/20 02:54:47;;;;;;;;;;;;;;;;;;137537;1275;22303;-81
2023/03/20 02:57:50;;;;;;;;;;;;;;;;;;137478;1274;22268;-81
2023/03/20 03:00:53;;;;;;;;;;;;;;;;;;137455;1275;22310;-82
2023/03/20 03:03:55;;;;;;;;;;;;;;;;;;137476;1275;22214;-82
2023/03/20 03:06:58;;;;;;;;;;;;;;;;;;137475;1271;22209;-82
2023/03/20 03:10:01;;;;;;;;;;;;;;;;;;137478;1275;22353;-83
2023/03/20 03:13:04;;;;;;;;;;;;;;;;;;137467;1275;22270;-82
2023/03/20 03:16:06;;;;;;;;;;;;;;;;;;137452;1274;22339;-83
2023/03/20 03:19:09;;;;;;;;;;;;;;;;;;137454;1275;22203;-81
2023/03/20 03:22:12;;;;;;;;;;;;;;;;;;137451;1275;22312;-82
2023/03/20 03:25:14;;;;;;;;;;;;;;;;;;137466;1274;22264;-82
2023/03/20 03:28:17;;;;;;;;;;;;;;;;;;137457;1275;22310;-82
2023/03/20 03:31:20;;;;;;;;;;;;;;;;;;137432;1275;22211;-83
2023/03/20 03:34:23;;;;;;;;;;;;;;;;;;137465;1274;22138;-82
2023/03/20 03:37:25;;;;;;;;;;;;;;;;;;137441;1275;22263;-83
2023/03/20 03:40:27;;;;;;;;;;;;;;;;;;137457;1275;22403;-81
2023/03/20 03:43:30;;;;;;;;;;;;;;;;;;137393;1275;22177;-78
2023/03/20 03:46:32;;;;;;;;;;;;;;;;;;137413;1275;22279;-81
2023/03/20 03:49:35;;;;;;;;;;;;;;;;;;137422;1275;22285;-81
2023/03/20 03:52:37;;;;;;;;;;;;;;;;;;137416;1275;22262;-81
2023/03/20 03:55:40;;;;;;;;;;;;;;;;;;137414;1274;22651;-82
2023/03/20 03:58:42;;;;;;;;;;;;;;;;;;137445;1275;22258;-81
2023/03/20 04:01:46;;;;;;;;;;;;;;;;;;137407;1274;22267;-81
2023/03/20 04:04:49;;;;;;;;;;;;;;;;;;137435;1275;22282;-82
2023/03/20 04:07:51;;;;;;;;;;;;;;;;;;137460;1274;22164;-82
2023/03/20 04:10:54;;;;;;;;;;;;;;;;;;137375;1274;22386;-82
2023/03/20 04:13:56;;;;;;;;;;;;;;;;;;137425;1274;22331;-82
2023/03/20 04:16:59;;;;;;;;;;;;;;;;;;137398;1274;22730;-82
2023/03/20 04:20:01;;;;;;;;;;;;;;;;;;137416;1274;22705;-82
2023/03/20 04:23:04;;;;;;;;;;;;;;;;;;137340;1271;22201;-81
2023/03/20 04:26:07;;;;;;;;;;;;;;;;;;137402;1274;22686;-81
2023/03/20 04:29:09;;;;;;;;;;;;;;;;;;137386;1274;22292;-82
2023/03/20 04:32:11;;;;;;;;;;;;;;;;;;137390;1275;22576;-82
2023/03/20 04:35:14;;;;;;;;;;;;;;;;;;137414;1274;22170;-82
2023/03/20 04:38:16;;;;;;;;;;;;;;;;;;137373;1274;22271;-82
2023/03/20 04:41:20;;;;;;;;;;;;;;;;;;137394;1274;22922;-83
2023/03/20 04:44:22;;;;;;;;;;;;;;;;;;137418;1274;22644;-82
2023/03/20 04:47:24;;;;;;;;;;;;;;;;;;137359;1274;22275;-81
2023/03/20 04:50:27;;;;;;;;;;;;;;;;;;137417;1274;22265;-81
2023/03/20 04:53:30;;;;;;;;;;;;;;;;;;137404;1275;22205;-82
2023/03/20 04:56:33;;;;;;;;;;;;;;;;;;137376;1274;22269;-81
2023/03/20 04:59:35;;;;;;;;;;;;;;;;;;137320;1275;22668;-82
2023/03/20 05:02:37;;;;;;;;;;;;;;;;;;137371;1274;22761;-82
2023/03/20 05:05:40;;;;;;;;;;;;;;;;;;137362;1275;22234;-81
2023/03/20 05:08:42;;;;;;;;;;;;;;;;;;137339;1274;22719;-82
2023/03/20 05:11:45;;;;;;;;;;;;;;;;;;137388;1275;22309;-82
2023/03/20 05:14:47;;;;;;;;;;;;;;;;;;137357;1274;22166;-81
2023/03/20 05:17:50;;;;;;;;;;;;;;;;;;137350;1274;22660;-81
2023/03/20 05:20:52;;;;;;;;;;;;;;;;;;137346;1275;22241;-82
2023/03/20 05:23:55;;;;;;;;;;;;;;;;;;137379;1274;22648;-81
2023/03/20 05:26:57;;;;;;;;;;;;;;;;;;137334;1274;22713;-81
2023/03/20 05:29:59;;;;;;;;;;;;;;;;;;137341;1275;22159;-81
2023/03/20 05:33:02;;;;;;;;;;;;;;;;;;137345;1274;22260;-81
2023/03/20 05:36:04;;;;;;;;;;;;;;;;;;137337;1274;22174;-81
2023/03/20 05:39:07;;;;;;;;;;;;;;;;;;137356;1275;22404;-82
2023/03/20 05:42:12;;;;;;;;;;;;;;;;;;137352;1271;22194;-80
2023/03/20 05:45:15;;;;;;;;;;;;;;;;;;137382;1274;22723;-81
2023/03/20 05:48:17;;;;;;;;;;;;;;;;;;137378;1274;22739;-82
2023/03/20 05:51:20;;;;;;;;;;;;;;;;;;137392;1275;22228;-81
2023/03/20 05:54:22;;;;;;;;;;;;;;;;;;137309;1275;22237;-82
2023/03/20 05:57:25;;;;;;;;;;;;;;;;;;137342;1275;22742;-81
2023/03/20 06:00:28;;;;;;;;;;;;;;;;;;137342;1275;22317;-78
2023/03/20 06:03:31;;;;;;;;;;;;;;;;;;137332;1274;22301;-77
2023/03/20 06:06:36;;;;;;;;;;;;;;;;;;137326;1275;22277;-78
2023/03/20 06:09:39;;;;;;;;;;;;;;;;;;137329;1275;22416;-78
2023/03/20 06:12:42;;;;;;;;;;;;;;;;;;137385;1275;22169;-77
2023/03/20 06:15:44;;;;;;;;;;;;;;;;;;137349;1275;22280;-77
2023/03/20 06:18:48;;;;;;;;;;;;;;;;;;137349;1274;22639;-82
2023/03/20 06:21:50;;;;;;;;;;;;;;;;;;137351;1275;22233;-81
2023/03/20 06:24:52;;;;;;;;;;;;;;;;;;137336;1275;22271;-81
2023/03/20 06:27:55;;;;;;;;;;;;;;;;;;137334;1275;22283;-81
2023/03/20 06:30:57;;;;;;;;;;;;;;;;;;137338;1275;22833;-82
2023/03/20 06:34:00;;;;;;;;;;;;;;;;;;137354;1275;22351;-80
2023/03/20 06:37:02;;;;;;;;;;;;;;;;;;137340;1274;22262;-82
2023/03/20 06:40:05;;;;;;;;;;;;;;;;;;137294;1274;22381;-82
2023/03/20 06:43:07;;;;;;;;;;;;;;;;;;137319;1274;22271;-81
2023/03/20 06:46:09;;;;;;;;;;;;;;;;;;137321;1274;22218;-82
2023/03/20 06:49:12;;;;;;;;;;;;;;;;;;137310;1274;22651;-82
2023/03/20 06:52:15;;;;;;;;;;;;;;;;;;137275;1275;22742;-82
2023/03/20 06:55:17;;;;;;;;;;;;;;;;;;137309;1274;22809;-83
2023/03/20 06:58:20;;;;;;;;;;;;;;;;;;137351;1274;22746;-82
2023/03/20 07:01:23;;;;;;;;;;;;;;;;;;137291;1274;22198;-81
2023/03/20 07:04:26;;;;;;;;;;;;;;;;;;137362;1274;22188;-81
2023/03/20 07:07:28;;;;;;;;;;;;;;;;;;137351;1274;22256;-82
2023/03/20 07:10:31;;;;;;;;;;;;;;;;;;137349;1274;22425;-82
2023/03/20 07:13:34;;;;;;;;;;;;;;;;;;137353;1275;22154;-82
2023/03/20 07:16:36;;;;;;;;;;;;;;;;;;137367;1275;22579;-81
2023/03/20 07:19:39;;;;;;;;;;;;;;;;;;137303;1274;22385;-82
2023/03/20 07:22:41;;;;;;;;;;;;;;;;;;137281;1274;22175;-81
2023/03/20 07:25:44;;;;;;;;;;;;;;;;;;137268;1275;22263;-81
2023/03/20 07:28:47;;;;;;;;;;;;;;;;;;137280;1275;22256;-82
2023/03/20 07:31:49;;;;;;;;;;;;;;;;;;137279;1274;22256;-82
2023/03/20 07:34:52;;;;;;;;;;;;;;;;;;137336;1275;22608;-83
2023/03/20 07:37:55;;;;;;;;;;;;;;;;;;137327;1274;22670;-79
2023/03/20 07:40:57;;;;;;;;;;;;;;;;;;137350;1274;22392;-80
2023/03/20 07:44:00;;;;;;;;;;;;;;;;;;137333;1275;23032;-80
2023/03/20 07:47:02;;;;;;;;;;;;;;;;;;137351;1274;22182;-79
2023/03/20 07:50:05;;;;;;;;;;;;;;;;;;137355;1274;22395;-79
2023/03/20 07:53:07;;;;;;;;;;;;;;;;;;137325;1275;22282;-79
2023/03/20 07:56:10;;;;;;;;;;;;;;;;;;137355;1274;22253;-78
2023/03/20 07:59:12;;;;;;;;;;;;;;;;;;137324;1275;22248;-80
2023/03/20 08:02:15;;;;;;;;;;;;;;;;;;137327;1274;22186;-79
2023/03/20 08:05:17;;;;;;;;;;;;;;;;;;137308;1275;22244;-77
2023/03/20 08:08:20;;;;;;;;;;;;;;;;;;137303;1275;22235;-80
2023/03/20 08:11:22;;;;;;;;;;;;;;;;;;137340;1274;22502;-78
2023/03/20 08:14:25;;;;;;;;;;;;;;;;;;137334;1274;22228;-78
2023/03/20 08:17:27;;;;;;;;;;;;;;;;;;137258;1274;22761;-77
2023/03/20 08:20:30;;;;;;;;;;;;;;;;;;137306;1275;22350;-77
2023/03/20 08:23:32;;;;;;;;;;;;;;;;;;137359;1275;22264;-78
2023/03/20 08:26:35;;;;;;;;;;;;;;;;;;137371;1275;22269;-79
2023/03/20 08:29:37;;;;;;;;;;;;;;;;;;137391;1275;22228;-78
2023/03/20 08:32:40;;;;;;;;;;;;;;;;;;137349;1274;22195;-80
2023/03/20 08:35:43;;;;;;;;;;;;;;;;;;137286;1275;22388;-80
2023/03/20 08:38:45;;;;;;;;;;;;;;;;;;137325;1274;22287;-80
2023/03/20 08:41:47;;;;;;;;;;;;;;;;;;137327;1275;22442;-81
2023/03/20 08:44:50;;;;;;;;;;;;;;;;;;137369;1275;22262;-82
2023/03/20 08:47:53;;;;;;;;;;;;;;;;;;137371;1275;22809;-82
2023/03/20 08:50:56;;;;;;;;;;;;;;;;;;137355;1274;22350;-82
2023/03/20 08:53:58;;;;;;;;;;;;;;;;;;137332;1275;22248;-80
2023/03/20 08:57:01;;;;;;;;;;;;;;;;;;137362;1275;22379;-82
2023/03/20 09:00:03;;;;;;;;;;;;;;;;;;137329;1274;22253;-82
2023/03/20 09:03:06;;;;;;;;;;;;;;;;;;137293;1275;22235;-80
2023/03/20 09:06:08;;;;;;;;;;;;;;;;;;137356;1275;22290;-80
2023/03/20 09:09:14;;;;;;;;;;;;;;;;;;137317;1274;22245;-80
2023/03/20 09:12:17;;;;;;;;;;;;;;;;;;137299;1275;22324;-79
2023/03/20 09:15:19;;;;;;;;;;;;;;;;;;137326;1275;22953;-80
2023/03/20 09:18:21;;;;;;;;;;;;;;;;;;137380;1275;22260;-80
2023/03/20 09:21:24;;;;;;;;;;;;;;;;;;137311;1275;22423;-80
2023/03/20 09:24:28;;;;;;;;;;;;;;;;;;137389;1275;22332;-80
2023/03/20 09:27:30;;;;;;;;;;;;;;;;;;137391;1275;22198;-80
2023/03/20 09:30:32;;;;;;;;;;;;;;;;;;137293;1275;22764;-79
2023/03/20 09:33:35;;;;;;;;;;;;;;;;;;137413;1275;22270;-81
2023/03/20 09:36:38;;;;;;;;;;;;;;;;;;137403;1275;22255;-81
2023/03/20 09:39:40;;;;;;;;;;;;;;;;;;137374;1275;22406;-81
2023/03/20 09:42:43;;;;;;;;;;;;;;;;;;137441;1275;22537;-81
2023/03/20 09:45:45;;;;;;;;;;;;;;;;;;137419;1274;22639;-81
2023/03/20 09:48:50;;;;;;;;;;;;;;;;;;137440;1275;22588;-81
2023/03/20 09:51:52;;;;;;;;;;;;;;;;;;137430;1275;22457;-82
2023/03/20 09:54:55;;;;;;;;;;;;;;;;;;137439;1275;22373;-79
2023/03/20 09:57:57;;;;;;;;;;;;;;;;;;137339;1275;23095;-79
2023/03/20 10:00:59;;;;;;;;;;;;;;;;;;137364;1275;22301;-80
2023/03/20 10:04:02;;;;;;;;;;;;;;;;;;137326;1275;22233;-80
2023/03/20 10:07:04;;;;;;;;;;;;;;;;;;137356;1272;22211;-80
2023/03/20 10:10:07;;;;;;;;;;;;;;;;;;137360;1275;22230;-80
2023/03/20 10:13:09;;;;;;;;;;;;;;;;;;137394;1275;22367;-80
2023/03/20 10:16:12;;;;;;;;;;;;;;;;;;137251;1275;22325;-81
2023/03/20 10:19:14;;;;;;;;;;;;;;;;;;137117;1274;22699;-80
2023/03/20 10:22:17;;;;;;;;;;;;;;;;;;137355;1275;22715;-79
2023/03/20 10:25:19;;;;;;;;;;;;;;;;;;137391;1274;22195;-80
2023/03/20 10:28:22;;;;;;;;;;;;;;;;;;137534;1274;22605;-79
2023/03/20 10:31:24;;;;;;;;;;;;;;;;;;137420;1270;22259;-79
2023/03/20 10:34:26;;;;;;;;;;;;;;;;;;137105;1279;22243;-79
2023/03/20 10:37:29;;;;;;;;;;;;;;;;;;136921;1282;22306;-80
2023/03/20 10:40:31;;;;;;;;;;;;;;;;;;136756;1284;22467;-80
2023/03/20 10:43:34;;;;;;;;;;;;;;;;;;136727;1284;23106;-78
2023/03/20 10:46:36;;;;;;;;;;;;;;;;;;136698;1284;22289;-80
2023/03/20 10:49:39;;;;;;;;;;;;;;;;;;136673;1284;22402;-81
2023/03/20 10:52:41;;;;;;;;;;;;;;;;;;136678;1284;22276;-79
2023/03/20 10:55:44;;;;;;;;;;;;;;;;;;136670;1284;22169;-80
2023/03/20 10:58:46;;;;;;;;;;;;;;;;;;136670;1284;22359;-80
2023/03/20 11:01:49;;;;;;;;;;;;;;;;;;136668;1284;22321;-80
2023/03/20 11:04:51;;;;;;;;;;;;;;;;;;136678;1284;22271;-82
2023/03/20 11:07:53;;;;;;;;;;;;;;;;;;136667;1284;22279;-81
2023/03/20 11:10:56;;;;;;;;;;;;;;;;;;136687;1284;22202;-79
2023/03/20 11:13:58;;;;;;;;;;;;;;;;;;136698;1284;22649;-80
2023/03/20 11:17:02;;;;;;;;;;;;;;;;;;136679;1284;22274;-80
2023/03/20 11:20:05;;;;;;;;;;;;;;;;;;136640;1284;22382;-79
2023/03/20 11:23:07;;;;;;;;;;;;;;;;;;136648;1284;22662;-79
2023/03/20 11:26:10;;;;;;;;;;;;;;;;;;136667;1284;22497;-81
2023/03/20 11:29:12;;;;;;;;;;;;;;;;;;136680;1284;22266;-79
2023/03/20 11:32:15;;;;;;;;;;;;;;;;;;136634;1284;22321;-79
2023/03/20 11:35:17;;;;;;;;;;;;;;;;;;136665;1284;22799;-81
2023/03/20 11:38:20;;;;;;;;;;;;;;;;;;136611;1284;22429;-80
2023/03/20 11:41:22;;;;;;;;;;;;;;;;;;136654;1284;22456;-80
2023/03/20 11:44:25;;;;;;;;;;;;;;;;;;136656;1284;22739;-81
2023/03/20 11:47:27;;;;;;;;;;;;;;;;;;136658;1284;22270;-80
2023/03/20 11:50:30;;;;;;;;;;;;;;;;;;136654;1284;22364;-80
2023/03/20 11:53:35;;;;;;;;;;;;;;;;;;136636;1284;22368;-80
2023/03/20 11:56:37;;;;;;;;;;;;;;;;;;136667;1284;22267;-80
2023/03/20 11:59:40;;;;;;;;;;;;;;;;;;136663;1284;22308;-81
2023/03/20 12:02:43;;;;;;;;;;;;;;;;;;136669;1284;22261;-82
2023/03/20 12:05:48;;;;;;;;;;;;;;;;;;136671;1284;22264;-80
2023/03/20 12:08:50;;;;;;;;;;;;;;;;;;136677;1284;22300;-81
2023/03/20 12:11:53;;;;;;;;;;;;;;;;;;136685;1284;22275;-81
2023/03/20 12:14:55;;;;;;;;;;;;;;;;;;136671;1284;22271;-81
2023/03/20 12:17:58;;;;;;;;;;;;;;;;;;136661;1284;22268;-81
2023/03/20 12:21:00;;;;;;;;;;;;;;;;;;136669;1284;22351;-81
2023/03/20 12:24:03;;;;;;;;;;;;;;;;;;136684;1284;22278;-81
2023/03/20 12:27:05;;;;;;;;;;;;;;;;;;136677;1284;22275;-79
2023/03/20 12:30:08;;;;;;;;;;;;;;;;;;136655;1284;22261;-82
2023/03/20 12:33:10;;;;;;;;;;;;;;;;;;136531;1284;184691;-81
2023/03/20 12:36:13;;;;;;;;;;;;;;;;;;136643;1284;22329;-81
2023/03/20 12:39:15;;;;;;;;;;;;;;;;;;136672;1284;22875;-82
2023/03/20 12:42:18;;;;;;;;;;;;;;;;;;136629;1284;22281;-80
2023/03/20 12:45:20;;;;;;;;;;;;;;;;;;136658;1284;22754;-81
2023/03/20 12:48:23;;;;;;;;;;;;;;;;;;136657;1284;22293;-81
2023/03/20 12:51:25;;;;;;;;;;;;;;;;;;136648;1284;22403;-81
2023/03/20 12:54:28;;;;;;;;;;;;;;;;;;136671;1284;22276;-81
2023/03/20 12:57:31;;;;;;;;;;;;;;;;;;136669;1284;22286;-82
2023/03/20 13:00:33;;;;;;;;;;;;;;;;;;136644;1284;22359;-79
2023/03/20 13:03:36;;;;;;;;;;;;;;;;;;136639;1284;22212;-80
2023/03/20 13:06:41;;;;;;;;;;;;;;;;;;136659;1284;22257;-81
2023/03/20 13:09:44;;;;;;;;;;;;;;;;;;136626;1284;22203;-81
2023/03/20 13:12:46;;;;;;;;;;;;;;;;;;136651;1284;22349;-81
2023/03/20 13:15:49;;;;;;;;;;;;;;;;;;136550;1284;22288;-81
2023/03/20 13:18:51;;;;;;;;;;;;;;;;;;136600;1284;22255;-82
2023/03/20 13:21:56;;;;;;;;;;;;;;;;;;136592;1284;22359;-82
2023/03/20 13:25:05;;;;;;;;;;;;;;;;;;136561;1284;22181;-80
2023/03/20 13:28:07;;;;;;;;;;;;;;;;;;136580;1284;22267;-80
2023/03/20 13:31:12;;;;;;;;;;;;;;;;;;136611;1284;22654;-81
2023/03/20 13:34:15;;;;;;;;;;;;;;;;;;136620;1284;22223;-81
2023/03/20 13:37:23;;;;;;;;;;;;;;;;;;136622;1284;22174;-83
2023/03/20 13:40:28;;;;;;;;;;;;;;;;;;136620;1284;22414;-81
2023/03/20 13:43:31;;;;;;;;;;;;;;;;;;136648;1284;22260;-82
2023/03/20 13:46:34;;;;;;;;;;;;;;;;;;136626;1284;22268;-81
2023/03/20 13:49:37;;;;;;;;;;;;;;;;;;136639;1277;22385;-81
2023/03/20 13:52:39;;;;;;;;;;;;;;;;;;136634;1284;22286;-80
2023/03/20 13:55:42;;;;;;;;;;;;;;;;;;136572;1284;22271;-81
2023/03/20 13:58:44;;;;;;;;;;;;;;;;;;136691;1284;22272;-82
2023/03/20 14:01:48;;;;;;;;;;;;;;;;;;136678;1284;22201;-82
2023/03/20 14:04:50;;;;;;;;;;;;;;;;;;136629;1284;22275;-81
2023/03/20 14:07:53;;;;;;;;;;;;;;;;;;136647;1284;22629;-82
2023/03/20 14:10:55;;;;;;;;;;;;;;;;;;136646;1284;22291;-82
2023/03/20 14:13:58;;;;;;;;;;;;;;;;;;136626;1284;22771;-80
2023/03/20 14:17:00;;;;;;;;;;;;;;;;;;136607;1284;22248;-81
2023/03/20 14:20:02;;;;;;;;;;;;;;;;;;136592;1284;22776;-80
2023/03/20 14:23:05;;;;;;;;;;;;;;;;;;136570;1284;22305;-81
2023/03/20 14:26:07;;;;;;;;;;;;;;;;;;136562;1270;22184;-81
2023/03/20 14:29:10;;;;;;;;;;;;;;;;;;136625;1284;22180;-82
2023/03/20 14:32:12;;;;;;;;;;;;;;;;;;136576;1284;22249;-80
2023/03/20 14:35:15;;;;;;;;;;;;;;;;;;136595;1284;22267;-81
2023/03/20 14:38:17;;;;;;;;;;;;;;;;;;136637;1284;22223;-81
2023/03/20 14:41:20;;;;;;;;;;;;;;;;;;136627;1284;23007;-82
2023/03/20 14:44:22;;;;;;;;;;;;;;;;;;136481;1284;22436;-83
2023/03/20 14:47:26;;;;;;;;;;;;;;;;;;136694;1284;22262;-83
2023/03/20 14:50:29;;;;;;;;;;;;;;;;;;136673;1284;22423;-81
2023/03/20 14:53:32;;;;;;;;;;;;;;;;;;136662;1284;22257;-82
2023/03/20 14:56:37;;;;;;;;;;;;;;;;;;136661;1284;22706;-81
2023/03/20 14:59:39;;;;;;;;;;;;;;;;;;136664;1284;22275;-83
2023/03/20 15:02:43;;;;;;;;;;;;;;;;;;136655;1284;22691;-81
2023/03/20 15:05:45;;;;;;;;;;;;;;;;;;136684;1284;22321;-82
2023/03/20 15:08:48;;;;;;;;;;;;;;;;;;136682;1284;22282;-82
2023/03/20 15:11:51;;;;;;;;;;;;;;;;;;136671;1270;22192;-82
2023/03/20 15:14:53;;;;;;;;;;;;;;;;;;136712;1284;22239;-81
2023/03/20 15:17:56;;;;;;;;;;;;;;;;;;136678;1280;22244;-81
2023/03/20 15:21:02;;;;;;;;;;;;;;;;;;136689;1284;22345;-82
2023/03/20 15:24:04;;;;;;;;;;;;;;;;;;136670;1284;22311;-81
2023/03/20 15:27:07;;;;;;;;;;;;;;;;;;136680;1284;22328;-83
2023/03/20 15:30:09;;;;;;;;;;;;;;;;;;136671;1284;22427;-81
2023/03/20 15:33:12;;;;;;;;;;;;;;;;;;136654;1284;22765;-81
2023/03/20 15:36:14;;;;;;;;;;;;;;;;;;136664;1284;22266;-82
2023/03/20 15:39:17;;;;;;;;;;;;;;;;;;136724;1272;22419;-82
2023/03/20 15:42:20;;;;;;;;;;;;;;;;;;136707;1284;22771;-81
2023/03/20 15:45:22;;;;;;;;;;;;;;;;;;136676;1284;22814;-83
2023/03/20 15:48:27;;;;;;;;;;;;;;;;;;136682;1284;22284;-82
2023/03/20 15:51:29;;;;;;;;;;;;;;;;;;136665;1284;22859;-81
2023/03/20 15:54:32;;;;;;;;;;;;;;;;;;136684;1284;22298;-82
2023/03/20 15:57:35;;;;;;;;;;;;;;;;;;136592;1284;22283;-82
2023/03/20 16:00:41;;;;;;;;;;;;;;;;;;136668;1284;22980;-82
2023/03/20 16:03:43;;;;;;;;;;;;;;;;;;136698;1284;22476;-82
2023/03/20 16:06:46;;;;;;;;;;;;;;;;;;136707;1284;22409;-81
2023/03/20 16:09:48;;;;;;;;;;;;;;;;;;136694;1267;22206;-83
2023/03/20 16:12:54;;;;;;;;;;;;;;;;;;136706;1284;22213;-83
2023/03/20 16:15:58;;;;;;;;;;;;;;;;;;136706;1284;22245;-81
2023/03/20 16:19:01;;;;;;;;;;;;;;;;;;136719;1284;22274;-82
2023/03/20 16:22:03;;;;;;;;;;;;;;;;;;136707;1284;22364;-84
2023/03/20 16:25:06;;;;;;;;;;;;;;;;;;136710;1284;22174;-82
2023/03/20 16:28:08;;;;;;;;;;;;;;;;;;136680;1284;22620;-82
2023/03/20 16:31:11;;;;;;;;;;;;;;;;;;136671;1284;22637;-81
2023/03/20 16:34:16;;;;;;;;;;;;;;;;;;136684;1284;22619;-81
2023/03/20 16:37:19;;;;;;;;;;;;;;;;;;136703;1284;22248;-81
2023/03/20 16:40:22;;;;;;;;;;;;;;;;;;136694;1284;22394;-82
2023/03/20 16:43:26;;;;;;;;;;;;;;;;;;136680;1284;22739;-83
2023/03/20 16:46:29;;;;;;;;;;;;;;;;;;136703;1284;22708;-82
2023/03/20 16:49:33;;;;;;;;;;;;;;;;;;136699;1284;23287;-81
2023/03/20 16:52:35;;;;;;;;;;;;;;;;;;136685;1284;22286;-82
2023/03/20 16:55:40;;;;;;;;;;;;;;;;;;136696;1284;22270;-81
2023/03/20 16:58:43;;;;;;;;;;;;;;;;;;136722;1284;22266;-83
2023/03/20 17:01:47;;;;;;;;;;;;;;;;;;136708;1284;22287;-81
2023/03/20 17:04:49;;;;;;;;;;;;;;;;;;136696;1284;22744;-81
2023/03/20 17:07:51;;;;;;;;;;;;;;;;;;136684;1284;22199;-80
2023/03/20 17:10:54;;;;;;;;;;;;;;;;;;136666;1284;22529;-81
2023/03/20 17:13:56;;;;;;;;;;;;;;;;;;136671;1284;22330;-81
2023/03/20 17:16:59;;;;;;;;;;;;;;;;;;136684;1284;22310;-81
2023/03/20 17:20:01;;;;;;;;;;;;;;;;;;136695;1284;22379;-80
2023/03/20 17:23:04;;;;;;;;;;;;;;;;;;136719;1284;22330;-81
2023/03/20 17:26:06;;;;;;;;;;;;;;;;;;136714;1284;22296;-81
2023/03/20 17:29:09;;;;;;;;;;;;;;;;;;136706;1284;22901;-80
2023/03/20 17:32:11;;;;;;;;;;;;;;;;;;136705;1284;22286;-81
2023/03/20 17:35:13;;;;;;;;;;;;;;;;;;136705;1284;22372;-81
2023/03/20 17:38:16;;;;;;;;;;;;;;;;;;136707;1284;22285;-80
2023/03/20 17:41:18;;;;;;;;;;;;;;;;;;136718;1284;22389;-81
2023/03/20 17:44:21;;;;;;;;;;;;;;;;;;136667;1284;22297;-80
2023/03/20 17:47:23;;;;;;;;;;;;;;;;;;136672;1277;22271;-82
2023/03/20 17:50:26;;;;;;;;;;;;;;;;;;136665;1284;22365;-82
2023/03/20 17:53:29;;;;;;;;;;;;;;;;;;136698;1284;22299;-82
2023/03/20 17:56:32;;;;;;;;;;;;;;;;;;136690;1284;22399;-81
2023/03/20 17:59:34;;;;;;;;;;;;;;;;;;136667;1284;22337;-80
2023/03/20 18:02:37;;;;;;;;;;;;;;;;;;136687;1284;22244;-81
2023/03/20 18:05:39;;;;;;;;;;;;;;;;;;136681;1284;22366;-80
2023/03/20 18:08:42;;;;;;;;;;;;;;;;;;136683;1284;22262;-82
2023/03/20 18:11:44;;;;;;;;;;;;;;;;;;136697;1284;22271;-82
2023/03/20 18:14:47;;;;;;;;;;;;;;;;;;136700;1284;22270;-83
2023/03/20 18:17:49;;;;;;;;;;;;;;;;;;136667;1284;22282;-82
2023/03/20 18:20:53;;;;;;;;;;;;;;;;;;136680;1280;22381;-82
2023/03/20 18:23:56;;;;;;;;;;;;;;;;;;136720;1284;22672;-82
2023/03/20 18:26:58;;;;;;;;;;;;;;;;;;136702;1284;22266;-82
2023/03/20 18:30:01;;;;;;;;;;;;;;;;;;136690;1284;22272;-81
2023/03/20 18:33:03;;;;;;;;;;;;;;;;;;136661;1284;22374;-82
2023/03/20 18:36:06;;;;;;;;;;;;;;;;;;136671;1284;22351;-83
2023/03/20 18:39:08;;;;;;;;;;;;;;;;;;136662;1284;22422;-82
2023/03/20 18:42:11;;;;;;;;;;;;;;;;;;136652;1284;22606;-83
2023/03/20 18:45:13;;;;;;;;;;;;;;;;;;136660;1284;22277;-82
2023/03/20 18:48:16;;;;;;;;;;;;;;;;;;136650;1284;22706;-82
2023/03/20 18:51:18;;;;;;;;;;;;;;;;;;136652;1284;22395;-82
2023/03/20 18:54:20;;;;;;;;;;;;;;;;;;136654;1284;22207;-82
2023/03/20 18:57:23;;;;;;;;;;;;;;;;;;136669;1284;22226;-82
2023/03/20 19:00:25;;;;;;;;;;;;;;;;;;136676;1284;22257;-83
2023/03/20 19:03:28;;;;;;;;;;;;;;;;;;136656;1279;22320;-82
2023/03/20 19:06:30;;;;;;;;;;;;;;;;;;136682;1284;22227;-82
2023/03/20 19:09:33;;;;;;;;;;;;;;;;;;136670;1284;22163;-81
2023/03/20 19:12:35;;;;;;;;;;;;;;;;;;136668;1284;22339;-83
2023/03/20 19:15:38;;;;;;;;;;;;;;;;;;136676;1284;22279;-84
2023/03/20 19:18:40;;;;;;;;;;;;;;;;;;136691;1284;22330;-81
2023/03/20 19:21:43;;;;;;;;;;;;;;;;;;136710;1284;22368;-81
2023/03/20 19:24:45;;;;;;;;;;;;;;;;;;136691;1284;22786;-81
2023/03/20 19:27:48;;;;;;;;;;;;;;;;;;136696;1284;22285;-82
2023/03/20 19:30:50;;;;;;;;;;;;;;;;;;136724;1284;22258;-82
2023/03/20 19:33:53;;;;;;;;;;;;;;;;;;136682;1284;22313;-81
2023/03/20 19:36:55;;;;;;;;;;;;;;;;;;136685;1284;22458;-82
2023/03/20 19:39:57;;;;;;;;;;;;;;;;;;136687;1284;22385;-82
2023/03/20 19:43:01;;;;;;;;;;;;;;;;;;136692;1284;22559;-83
2023/03/20 19:46:03;;;;;;;;;;;;;;;;;;136703;1284;22192;-83
2023/03/20 19:49:06;;;;;;;;;;;;;;;;;;136661;1284;22551;-82
2023/03/20 19:52:08;;;;;;;;;;;;;;;;;;136685;1284;22374;-82
2023/03/20 19:55:10;;;;;;;;;;;;;;;;;;136662;1284;22274;-81
2023/03/20 19:58:13;;;;;;;;;;;;;;;;;;136689;1284;22182;-79
2023/03/20 20:01:15;;;;;;;;;;;;;;;;;;136677;1284;22677;-82
2023/03/20 20:04:18;;;;;;;;;;;;;;;;;;136679;1284;22190;-83
2023/03/20 20:07:20;;;;;;;;;;;;;;;;;;136686;1284;22340;-82
2023/03/20 20:10:23;;;;;;;;;;;;;;;;;;136710;1284;22766;-82
2023/03/20 20:13:26;;;;;;;;;;;;;;;;;;136672;1284;22232;-83
2023/03/20 20:16:28;;;;;;;;;;;;;;;;;;136694;1284;22180;-84
2023/03/20 20:19:30;;;;;;;;;;;;;;;;;;136721;1284;22557;-84
2023/03/20 20:22:33;;;;;;;;;;;;;;;;;;136725;1284;22206;-83
2023/03/20 20:25:38;;;;;;;;;;;;;;;;;;136709;1284;22351;-82